Time;durP1;ratioP1;P1;durP2;ratioP2;P2;SDS_P1;SDS_P2;PMS_P1;PMS_P2;Temp;Humidity;BMP_temperature;BMP_pressure;BME280_temperature;BME280_humidity;BME280_pressure;Samples;Min_cycle;Max_cycle;Signal;HPM_P1;HPM_P2
2023/01/14 00:00:54;;;;;;;2.20;1.40;;;3.50;99.90;;;;;;5072160;28;20204;-68
2023/01/14 00:03:20;;;;;;;4.80;1.85;;;3.40;99.90;;;;;;5072297;28;20216;-68
2023/01/14 00:05:56;;;;;;;1.75;1.30;;;3.40;99.90;;;;;;5074299;28;20200;-68
2023/01/14 00:08:23;;;;;;;2.65;1.13;;;3.40;99.90;;;;;;5075911;28;20635;-68
2023/01/14 00:10:51;;;;;;;2.90;1.50;;;3.40;99.90;;;;;;5071851;28;20208;-68
2023/01/14 00:13:17;;;;;;;2.25;1.50;;;3.40;99.90;;;;;;5070608;28;20204;-68
2023/01/14 00:15:52;;;;;;;2.75;1.67;;;3.40;99.90;;;;;;5070960;28;20734;-68
2023/01/14 00:18:19;;;;;;;3.92;1.60;;;3.40;99.90;;;;;;5070656;28;20638;-68
2023/01/14 00:20:59;;;;;;;3.40;2.08;;;3.40;99.90;;;;;;5070334;28;20220;-68
2023/01/14 00:23:26;;;;;;;2.85;1.65;;;3.40;99.90;;;;;;5070639;28;20465;-68
2023/01/14 00:25:54;;;;;;;2.33;2.10;;;3.40;99.90;;;;;;5070451;28;20204;-68
2023/01/14 00:28:21;;;;;;;2.08;1.40;;;3.40;99.90;;;;;;5070204;28;20569;-68
2023/01/14 00:30:48;;;;;;;3.42;1.65;;;3.40;99.90;;;;;;5070583;28;20219;-68
2023/01/14 00:33:14;;;;;;;3.58;1.20;;;3.40;99.90;;;;;;5070192;28;20212;-68
2023/01/14 00:35:41;;;;;;;1.63;1.35;;;3.40;99.90;;;;;;5070469;28;20231;-68
2023/01/14 00:38:08;;;;;;;3.35;1.30;;;3.40;99.90;;;;;;5069748;28;20208;-68
2023/01/14 00:40:34;;;;;;;1.25;1.10;;;3.40;99.90;;;;;;5070374;28;20463;-68
2023/01/14 00:43:02;;;;;;;1.10;0.90;;;3.40;99.90;;;;;;5070662;28;20700;-69
2023/01/14 00:45:29;;;;;;;2.03;1.45;;;3.30;99.90;;;;;;5070432;28;20208;-68
2023/01/14 00:47:56;;;;;;;3.05;1.65;;;3.40;99.90;;;;;;5070131;28;20254;-68
2023/01/14 00:50:23;;;;;;;1.65;1.20;;;3.40;99.90;;;;;;5069671;28;20212;-68
2023/01/14 00:52:50;;;;;;;2.10;1.42;;;3.50;99.90;;;;;;5069368;28;20680;-68
2023/01/14 00:55:16;;;;;;;1.58;1.45;;;3.50;99.90;;;;;;5070238;28;20643;-68
2023/01/14 00:57:43;;;;;;;1.95;1.25;;;3.50;99.90;;;;;;5069895;28;20225;-68
2023/01/14 01:00:13;;;;;;;4.43;1.13;;;3.50;99.90;;;;;;5069431;28;20200;-68
2023/01/14 01:02:39;;;;;;;2.33;1.23;;;3.50;99.90;;;;;;5070588;28;20207;-68
2023/01/14 01:05:07;;;;;;;4.50;1.30;;;3.50;99.90;;;;;;5071091;28;20204;-70
2023/01/14 01:07:33;;;;;;;2.67;1.50;;;3.50;99.90;;;;;;5072861;28;20224;-70
2023/01/14 01:10:00;;;;;;;2.97;1.38;;;3.50;99.90;;;;;;5062262;22;20234;-92
2023/01/14 01:12:27;;;;;;;1.88;1.13;;;3.50;99.90;;;;;;5028649;28;20253;-93
2023/01/14 01:14:54;;;;;;;3.17;1.42;;;3.60;99.90;;;;;;5036330;28;20202;-93
2023/01/14 01:17:23;;;;;;;6.03;1.42;;;3.50;99.90;;;;;;5039322;28;20286;-93
2023/01/14 01:19:50;;;;;;;1.25;1.10;;;3.50;99.90;;;;;;5038889;28;20191;-93
2023/01/14 01:22:18;;;;;;;6.15;1.40;;;3.60;99.90;;;;;;5038994;28;20249;-93
2023/01/14 01:24:45;;;;;;;2.47;1.15;;;3.60;99.90;;;;;;5037592;28;20202;-93
2023/01/14 01:27:12;;;;;;;6.15;1.20;;;3.60;99.90;;;;;;5036405;28;20203;-92
2023/01/14 01:29:39;;;;;;;2.50;1.35;;;3.60;99.90;;;;;;5038634;28;20186;-93
2023/01/14 01:32:06;;;;;;;2.95;1.30;;;3.60;99.90;;;;;;5038608;28;20291;-93
2023/01/14 01:34:34;;;;;;;1.13;0.88;;;3.60;99.90;;;;;;5038095;28;20199;-93
2023/01/14 01:37:01;;;;;;;1.30;1.20;;;3.60;99.90;;;;;;5037958;28;20214;-94
2023/01/14 01:39:28;;;;;;;5.63;1.70;;;3.70;99.90;;;;;;5038041;28;20210;-92
2023/01/14 01:41:55;;;;;;;1.75;1.20;;;3.70;99.90;;;;;;5038301;28;20224;-94
2023/01/14 01:45:00;;;;;;;1.90;1.27;;;3.70;99.90;;;;;;5039384;28;20227;-93
2023/01/14 01:47:26;;;;;;;3.45;1.77;;;3.70;99.90;;;;;;5039195;28;20273;-93
2023/01/14 01:49:55;;;;;;;1.20;1.10;;;3.70;99.90;;;;;;5038550;28;20186;-94
2023/01/14 01:52:26;;;;;;;2.00;1.10;;;3.70;99.90;;;;;;5037397;28;20222;-93
2023/01/14 01:54:56;;;;;;;1.52;1.38;;;3.60;99.90;;;;;;5031888;28;20210;-94
2023/01/14 01:57:24;;;;;;;3.00;1.40;;;3.60;99.90;;;;;;5026422;28;20226;-93
2023/01/14 01:59:55;;;;;;;5.13;1.70;;;3.60;99.90;;;;;;5025167;28;20224;-93
2023/01/14 02:02:24;;;;;;;2.33;1.05;;;3.60;99.90;;;;;;5025872;28;20313;-94
2023/01/14 02:04:51;;;;;;;3.55;1.40;;;3.60;99.90;;;;;;5026345;28;20210;-94
2023/01/14 02:07:21;;;;;;;2.30;1.50;;;3.60;99.90;;;;;;5028776;28;20193;-94
2023/01/14 02:09:50;;;;;;;2.53;1.38;;;3.60;99.90;;;;;;5035572;28;20206;-95
2023/01/14 02:12:46;;;;;;;1.55;0.90;;;3.60;99.90;;;;;;5035706;28;20313;-93
2023/01/14 02:15:31;;;;;;;4.15;1.38;;;3.60;99.90;;;;;;5033894;28;20604;-93
2023/01/14 02:18:07;;;;;;;1.92;1.23;;;3.50;99.90;;;;;;5027523;28;20249;-93
2023/01/14 02:20:39;;;;;;;2.80;1.40;;;3.50;99.90;;;;;;5026989;28;20218;-94
2023/01/14 02:23:40;;;;;;;1.90;1.55;;;3.50;99.90;;;;;;5027993;28;20751;-93
2023/01/14 02:26:50;;;;;;;1.63;1.00;;;3.40;99.90;;;;;;5026745;28;20201;-93
2023/01/14 02:29:40;;;;;;;1.55;0.93;;;3.40;99.90;;;;;;4970277;28;20393;-94
2023/01/14 02:32:15;;;;;;;3.17;1.27;;;3.40;99.90;;;;;;5036725;28;20218;-93
2023/01/14 02:34:52;;;;;;;8.98;1.45;;;3.40;99.90;;;;;;5030332;28;20225;-94
2023/01/14 02:37:36;;;;;;;4.75;1.35;;;3.40;99.90;;;;;;5032730;28;20210;-94
2023/01/14 02:40:14;;;;;;;1.52;1.00;;;3.40;99.90;;;;;;5032870;28;20273;-93
2023/01/14 02:45:38;;;;;;;6.85;1.67;;;3.30;99.90;;;;;;5035907;28;20177;-95
2023/01/14 02:48:06;;;;;;;4.40;1.08;;;3.30;99.90;;;;;;5034674;28;20253;-95
2023/01/14 02:50:35;;;;;;;2.47;1.48;;;3.30;99.90;;;;;;5033751;28;20202;-94
2023/01/14 02:53:08;;;;;;;3.90;1.30;;;3.20;99.90;;;;;;5033032;28;20230;-94
2023/01/14 02:55:38;;;;;;;2.75;1.00;;;3.10;99.90;;;;;;5032225;28;20226;-94
2023/01/14 02:58:40;;;;;;;1.63;1.25;;;3.10;99.90;;;;;;5033448;28;20219;-93
2023/01/14 03:01:23;;;;;;;3.30;1.40;;;3.10;99.90;;;;;;5033240;28;20256;-94
2023/01/14 03:04:10;;;;;;;1.10;1.00;;;3.10;99.90;;;;;;5034364;28;20270;-94
2023/01/14 03:06:47;;;;;;;4.25;1.80;;;3.10;99.90;;;;;;5034675;28;20313;-94
2023/01/14 03:09:20;;;;;;;5.97;1.65;;;3.10;99.90;;;;;;5034266;28;20198;-93
2023/01/14 03:11:54;;;;;;;2.28;1.20;;;3.20;99.90;;;;;;5034667;28;20237;-93
2023/01/14 03:14:26;;;;;;;7.05;1.77;;;3.10;99.90;;;;;;5035869;28;20189;-93
2023/01/14 03:16:58;;;;;;;3.42;1.10;;;3.20;99.90;;;;;;5038334;28;20286;-94
2023/01/14 03:19:30;;;;;;;1.20;0.90;;;3.20;99.90;;;;;;5040262;28;20309;-93
2023/01/14 03:21:59;;;;;;;2.35;0.90;;;3.20;99.90;;;;;;5040131;28;20226;-94
2023/01/14 03:24:30;;;;;;;2.15;1.30;;;3.10;99.90;;;;;;5040585;28;20707;-94
2023/01/14 03:27:03;;;;;;;3.30;1.58;;;3.10;99.90;;;;;;5040930;28;20249;-94
2023/01/14 03:29:35;;;;;;;1.40;1.15;;;3.10;99.90;;;;;;5040649;28;20178;-94
2023/01/14 03:32:08;;;;;;;5.07;1.55;;;3.10;99.90;;;;;;5041658;28;20210;-94
2023/01/14 03:34:44;;;;;;;1.00;0.80;;;3.10;99.90;;;;;;5041827;28;20218;-94
2023/01/14 03:37:14;;;;;;;3.10;1.63;;;3.20;99.90;;;;;;5041597;28;20210;-93
2023/01/14 03:39:45;;;;;;;2.83;2.00;;;3.20;99.90;;;;;;5041281;28;20175;-93
2023/01/14 03:42:18;;;;;;;4.75;1.63;;;3.20;99.90;;;;;;5041084;28;20229;-93
2023/01/14 03:44:57;;;;;;;2.30;1.20;;;3.30;99.90;;;;;;5041408;28;20190;-94
2023/01/14 03:47:27;;;;;;;1.42;1.30;;;3.30;99.90;;;;;;5040908;28;20213;-94
2023/01/14 03:49:56;;;;;;;1.75;1.48;;;3.30;99.90;;;;;;5040769;28;20198;-94
2023/01/14 03:52:34;;;;;;;5.18;1.25;;;3.30;99.90;;;;;;5040850;28;20230;-94
2023/01/14 03:55:07;;;;;;;2.72;0.95;;;3.20;99.90;;;;;;5040912;28;20193;-93
2023/01/14 03:57:43;;;;;;;1.10;1.00;;;3.20;99.90;;;;;;5041749;28;20269;-93
2023/01/14 04:00:18;;;;;;;3.22;0.90;;;3.10;99.90;;;;;;5041074;28;20178;-94
2023/01/14 04:02:48;;;;;;;5.57;1.38;;;3.10;99.90;;;;;;5040855;28;20254;-92
2023/01/14 04:05:15;;;;;;;3.45;1.15;;;3.10;99.90;;;;;;5041344;28;20270;-93
2023/01/14 04:07:42;;;;;;;2.33;0.95;;;3.10;99.90;;;;;;5040843;28;20194;-91
2023/01/14 04:10:10;;;;;;;4.15;1.60;;;3.00;99.90;;;;;;5040883;28;20195;-94
2023/01/14 04:15:20;;;;;;;3.08;1.38;;;3.00;99.90;;;;;;5040790;28;20250;-95
2023/01/14 04:15:23;;;;;;;1.65;1.02;;;3.10;99.90;;;;;;5040848;28;20183;-95
2023/01/14 04:17:51;;;;;;;4.87;1.50;;;3.10;99.90;;;;;;5041044;28;20268;-94
2023/01/14 04:20:18;;;;;;;4.05;1.50;;;3.10;99.90;;;;;;5041048;28;20206;-95
2023/01/14 04:22:45;;;;;;;1.80;1.20;;;3.10;99.90;;;;;;5040718;28;20230;-94
2023/01/14 04:25:12;;;;;;;1.90;1.08;;;3.10;99.90;;;;;;5084063;22;20599;-94
2023/01/14 04:27:39;;;;;;;2.55;1.20;;;3.10;99.90;;;;;;5060889;28;20257;-95
2023/01/14 04:30:07;;;;;;;1.23;1.05;;;3.10;99.90;;;;;;5060866;28;20205;-94
2023/01/14 04:32:34;;;;;;;1.33;1.02;;;3.10;99.90;;;;;;5060799;28;20221;-94
2023/01/14 04:35:03;;;;;;;1.88;1.13;;;3.10;99.90;;;;;;5060849;28;20189;-94
2023/01/14 04:37:29;;;;;;;1.65;1.20;;;3.10;99.90;;;;;;5060450;28;20233;-93
2023/01/14 04:39:56;;;;;;;1.60;1.17;;;3.10;99.90;;;;;;5060213;28;20193;-95
2023/01/14 04:42:26;;;;;;;2.85;1.30;;;3.10;99.90;;;;;;5060178;28;20225;-93
2023/01/14 04:44:53;;;;;;;4.20;1.65;;;3.10;99.90;;;;;;5060336;28;20208;-95
2023/01/14 04:47:20;;;;;;;1.63;1.20;;;3.00;99.90;;;;;;5060120;28;20194;-94
2023/01/14 04:49:47;;;;;;;4.28;1.90;;;3.10;99.90;;;;;;5059924;28;20192;-94
2023/01/14 04:52:15;;;;;;;7.75;1.40;;;3.00;99.90;;;;;;5060220;28;20232;-93
2023/01/14 04:54:43;;;;;;;1.98;1.40;;;2.90;99.90;;;;;;5060089;28;20196;-95
2023/01/14 04:57:13;;;;;;;2.13;1.10;;;3.00;99.90;;;;;;5060175;28;20281;-94
2023/01/14 04:59:40;;;;;;;2.72;2.05;;;2.90;99.90;;;;;;5060130;28;20194;-94
2023/01/14 05:02:07;;;;;;;1.33;0.98;;;2.90;99.90;;;;;;5059943;28;20281;-94
2023/01/14 05:04:34;;;;;;;1.67;1.58;;;2.90;99.90;;;;;;5060259;28;20204;-95
2023/01/14 05:07:02;;;;;;;1.40;1.00;;;2.90;99.90;;;;;;5059980;28;20181;-95
2023/01/14 05:09:31;;;;;;;1.50;0.90;;;3.00;99.90;;;;;;5059611;28;20208;-95
2023/01/14 05:11:58;;;;;;;2.30;1.30;;;3.00;99.90;;;;;;5059317;28;20301;-95
2023/01/14 05:14:25;;;;;;;1.42;0.90;;;3.00;99.90;;;;;;5059798;28;20197;-94
2023/01/14 05:16:55;;;;;;;6.00;1.25;;;3.00;99.90;;;;;;5059264;28;20237;-94
2023/01/14 05:19:22;;;;;;;5.50;1.10;;;3.00;99.90;;;;;;5058545;28;20237;-94
2023/01/14 05:21:49;;;;;;;1.42;1.00;;;3.00;99.90;;;;;;5058964;28;20206;-94
2023/01/14 05:24:16;;;;;;;1.13;1.00;;;3.10;99.90;;;;;;5058609;28;20197;-94
2023/01/14 05:29:43;;;;;;;3.33;1.42;;;3.10;99.90;;;;;;5059303;28;20181;-93
2023/01/14 05:32:12;;;;;;;1.42;1.23;;;3.20;99.90;;;;;;5058872;28;20217;-95
2023/01/14 05:34:38;;;;;;;2.28;1.15;;;3.20;99.90;;;;;;5059102;28;20186;-94
2023/01/14 05:37:06;;;;;;;2.03;1.10;;;3.20;99.90;;;;;;5058942;28;20285;-95
2023/01/14 05:39:33;;;;;;;3.50;1.00;;;3.10;99.90;;;;;;5058048;28;20254;-93
2023/01/14 05:47:33;;;;;;;5.35;1.40;;;3.10;99.90;;;;;;5059492;28;20173;-93
2023/01/14 05:50:00;;;;;;;2.22;1.05;;;3.10;99.90;;;;;;5058736;28;20178;-93
2023/01/14 05:52:27;;;;;;;2.60;1.20;;;3.10;99.90;;;;;;5059121;28;20278;-95
2023/01/14 05:54:56;;;;;;;2.35;1.45;;;3.10;99.90;;;;;;5058661;28;20198;-93
2023/01/14 05:57:24;;;;;;;1.33;1.15;;;3.00;99.90;;;;;;5058980;28;20205;-94
2023/01/14 05:59:53;;;;;;;3.80;1.33;;;3.00;99.90;;;;;;5058592;28;20213;-93
2023/01/14 06:07:50;;;;;;;0.90;0.70;;;3.00;99.90;;;;;;5279812;22;20229;-93
2023/01/14 06:10:17;;;;;;;6.82;1.27;;;3.00;99.90;;;;;;5057061;28;20190;-94
2023/01/14 06:13:00;;;;;;;1.50;1.40;;;3.00;99.90;;;;;;5058698;28;20277;-94
2023/01/14 08:01:49;;;;;;;1.20;0.90;;;4.00;99.90;;;;;;5030856;28;20218;-91
2023/01/14 08:04:17;;;;;;;3.30;1.48;;;4.10;99.90;;;;;;5036642;28;20612;-91
2023/01/14 08:06:44;;;;;;;3.33;1.05;;;4.20;99.90;;;;;;5039131;28;20237;-91
2023/01/14 08:09:10;;;;;;;3.20;2.17;;;4.30;99.90;;;;;;5040305;28;20205;-91
2023/01/14 08:11:37;;;;;;;1.42;1.00;;;4.30;99.90;;;;;;5040556;28;20229;-91
2023/01/14 08:14:04;;;;;;;6.90;1.60;;;4.40;99.90;;;;;;5040886;28;20808;-91
2023/01/14 08:16:31;;;;;;;1.75;1.10;;;4.50;99.90;;;;;;5040232;28;20209;-89
2023/01/14 08:18:59;;;;;;;4.50;1.25;;;4.70;99.90;;;;;;5028070;28;20217;-91
2023/01/14 08:21:26;;;;;;;5.38;1.20;;;4.80;99.90;;;;;;5026438;28;20307;-91
2023/01/14 08:23:53;;;;;;;1.98;1.20;;;4.90;99.90;;;;;;5033828;28;20197;-91
2023/01/14 08:26:19;;;;;;;2.55;1.00;;;4.90;99.90;;;;;;5022258;28;20194;-90
2023/01/14 08:28:46;;;;;;;2.70;1.65;;;5.00;99.90;;;;;;5021178;28;20203;-91
2023/01/14 08:31:15;;;;;;;3.53;1.27;;;5.10;99.90;;;;;;5023638;28;20223;-91
2023/01/14 08:33:43;;;;;;;2.35;1.45;;;5.20;99.90;;;;;;5024328;28;20207;-91
2023/01/14 08:36:13;;;;;;;5.00;1.45;;;5.40;99.90;;;;;;5023749;28;20210;-91
2023/01/14 08:38:44;;;;;;;2.75;1.20;;;5.70;99.90;;;;;;5032931;28;20221;-91
2023/01/14 08:41:13;;;;;;;2.92;1.65;;;6.00;99.90;;;;;;5040065;28;20233;-91
2023/01/14 08:43:41;;;;;;;4.03;1.55;;;6.20;99.90;;;;;;5039272;28;20564;-92
2023/01/14 08:46:09;;;;;;;1.60;1.40;;;6.30;99.90;;;;;;5039276;28;20289;-91
2023/01/14 08:48:36;;;;;;;3.92;1.55;;;6.30;99.90;;;;;;5040188;28;20209;-91
2023/01/14 08:51:05;;;;;;;2.85;1.40;;;6.30;99.90;;;;;;5038496;28;20217;-91
2023/01/14 08:53:34;;;;;;;1.73;1.00;;;6.30;99.90;;;;;;5039096;28;20205;-92
2023/01/14 08:56:02;;;;;;;2.15;1.58;;;6.20;99.90;;;;;;5037009;28;20216;-92
2023/01/14 08:58:29;;;;;;;7.30;1.73;;;6.10;99.90;;;;;;5039645;28;20749;-91
2023/01/14 09:00:56;;;;;;;2.30;1.10;;;6.10;99.90;;;;;;5047191;28;20205;-92
2023/01/14 09:03:25;;;;;;;5.15;1.60;;;6.10;99.90;;;;;;5037767;28;20206;-92
2023/01/14 09:05:55;;;;;;;2.42;1.45;;;6.10;99.90;;;;;;5037462;28;20232;-90
2023/01/14 09:19:21;;;;;;;1.20;1.10;;;6.20;99.90;;;;;;5021444;28;20251;-90
2023/01/14 09:21:47;;;;;;;4.30;1.45;;;6.20;99.90;;;;;;5036184;28;20232;-91
2023/01/14 09:24:14;;;;;;;6.40;1.45;;;6.20;99.90;;;;;;5035692;28;20210;-91
2023/01/14 09:26:42;;;;;;;1.42;0.98;;;6.20;99.90;;;;;;5036051;28;20769;-92
2023/01/14 09:29:09;;;;;;;3.00;1.40;;;6.20;99.90;;;;;;5034401;28;20674;-90
2023/01/14 09:31:36;;;;;;;2.35;1.20;;;6.20;99.90;;;;;;5035665;28;20309;-92
2023/01/14 09:34:03;;;;;;;3.90;1.52;;;6.30;99.90;;;;;;5030136;28;20717;-92
2023/01/14 09:36:30;;;;;;;4.70;1.60;;;6.30;99.90;;;;;;5020417;28;20285;-92
2023/01/14 09:38:57;;;;;;;1.30;1.15;;;6.30;99.90;;;;;;5028953;28;20228;-92
2023/01/14 09:41:27;;;;;;;2.05;1.27;;;6.40;99.90;;;;;;5017782;28;20222;-90
2023/01/14 09:43:55;;;;;;;1.65;1.17;;;6.40;99.90;;;;;;5027382;28;20221;-92
2023/01/14 09:46:36;;;;;;;3.20;1.35;;;6.50;99.90;;;;;;5026684;28;20772;-93
2023/01/14 09:49:05;;;;;;;6.75;2.17;;;6.50;99.90;;;;;;5021944;28;20670;-91
2023/01/14 09:51:50;;;;;;;2.90;0.90;;;6.60;99.90;;;;;;5018227;28;20222;-92
2023/01/14 09:54:24;;;;;;;2.15;1.02;;;6.70;99.90;;;;;;5020871;28;20229;-92
2023/01/14 09:56:56;;;;;;;1.75;1.20;;;6.80;99.90;;;;;;5018699;28;20207;-91
2023/01/14 09:59:32;;;;;;;3.13;1.30;;;6.80;99.90;;;;;;5020846;28;20264;-93
2023/01/14 10:02:10;;;;;;;1.25;1.08;;;6.90;99.90;;;;;;5034763;28;20308;-92
2023/01/14 10:05:14;;;;;;;4.30;1.77;;;7.00;99.90;;;;;;5045545;28;20652;-92
2023/01/14 10:07:55;;;;;;;2.10;1.10;;;7.10;99.90;;;;;;5020752;28;20190;-94
2023/01/14 10:10:29;;;;;;;2.45;1.33;;;7.10;99.90;;;;;;5023156;28;20224;-93
2023/01/14 10:13:03;;;;;;;2.45;1.17;;;7.10;99.90;;;;;;5023905;28;20214;-93
2023/01/14 10:15:54;;;;;;;3.97;1.35;;;7.20;99.90;;;;;;5028686;28;21214;-93
2023/01/14 10:21:29;;;;;;;1.02;0.90;;;7.20;99.90;;;;;;5020112;28;20253;-93
2023/01/14 10:23:56;;;;;;;1.10;1.00;;;7.20;99.90;;;;;;5022663;28;20270;-94
2023/01/14 10:26:31;;;;;;;1.83;1.25;;;7.30;99.90;;;;;;5022564;28;20556;-92
2023/01/14 10:29:01;;;;;;;1.40;0.90;;;7.30;99.90;;;;;;5021946;28;20756;-91
2023/01/14 10:31:32;;;;;;;1.98;1.10;;;7.30;99.90;;;;;;5031436;28;20237;-93
2023/01/14 10:34:00;;;;;;;1.98;1.08;;;7.30;99.90;;;;;;5027817;28;20205;-93
2023/01/14 10:36:30;;;;;;;1.25;0.95;;;7.30;99.90;;;;;;5027037;28;20202;-93
2023/01/14 10:39:13;;;;;;;2.22;1.00;;;7.30;99.90;;;;;;5031488;28;20218;-93
2023/01/14 10:44:33;;;;;;;2.50;1.27;;;7.40;99.90;;;;;;5018397;28;20224;-92
2023/01/14 10:47:21;;;;;;;2.17;1.00;;;7.50;99.90;;;;;;5026226;28;20655;-92
2023/01/14 10:49:52;;;;;;;1.30;1.00;;;7.50;99.90;;;;;;5027026;28;20193;-92
2023/01/14 10:52:34;;;;;;;1.83;1.00;;;7.50;99.90;;;;;;5027352;28;20238;-92
2023/01/14 10:55:11;;;;;;;2.03;1.00;;;7.60;99.90;;;;;;5030191;28;20195;-92
2023/01/14 10:57:45;;;;;;;1.55;1.20;;;7.60;99.90;;;;;;5040080;28;20227;-93
2023/01/14 11:00:33;;;;;;;1.10;0.90;;;7.60;99.90;;;;;;5041316;28;20263;-92
2023/01/14 11:03:03;;;;;;;6.20;1.00;;;7.70;99.90;;;;;;5038696;28;20218;-92
2023/01/14 11:05:46;;;;;;;1.75;1.10;;;7.70;99.90;;;;;;5040731;28;20198;-92
2023/01/14 11:08:28;;;;;;;3.60;1.15;;;7.70;99.90;;;;;;5032493;28;20282;-92
2023/01/14 11:10:57;;;;;;;1.02;0.88;;;7.70;99.90;;;;;;5033905;28;20194;-92
2023/01/14 11:13:28;;;;;;;1.42;1.20;;;7.70;99.90;;;;;;5036428;28;20209;-91
2023/01/14 11:15:56;;;;;;;1.92;0.80;;;7.70;99.90;;;;;;5038414;28;20198;-92
2023/01/14 11:18:30;;;;;;;1.40;1.10;;;7.70;99.90;;;;;;5032608;28;20257;-92
2023/01/14 11:21:11;;;;;;;1.33;0.85;;;7.70;99.90;;;;;;5032939;28;20207;-91
2023/01/14 11:23:40;;;;;;;1.13;0.90;;;7.70;99.90;;;;;;5038179;28;20213;-90
2023/01/14 11:26:10;;;;;;;1.60;1.10;;;7.80;99.90;;;;;;5040380;28;20199;-93
2023/01/14 11:28:40;;;;;;;1.65;1.15;;;7.70;99.90;;;;;;5026311;28;20216;-91
2023/01/14 11:31:07;;;;;;;2.10;1.27;;;7.70;99.90;;;;;;5028031;28;20250;-91
2023/01/14 11:33:36;;;;;;;2.58;1.17;;;7.70;99.90;;;;;;5040695;28;20270;-91
2023/01/14 11:36:52;;;;;;;4.95;1.20;;;7.70;99.90;;;;;;5035352;28;20210;-91
2023/01/14 11:39:33;;;;;;;;;;;;;;;;;;;;;
2023/01/14 11:42:02;;;;;;;1.65;0.80;;;7.80;99.90;;;;;;5015207;28;20253;-91
2023/01/14 11:44:33;;;;;;;2.95;1.45;;;7.90;99.90;;;;;;5023068;28;20214;-92
2023/01/14 11:47:12;;;;;;;1.25;1.13;;;7.90;99.90;;;;;;5024265;28;20236;-92
2023/01/14 11:49:41;;;;;;;4.43;1.30;;;8.00;99.90;;;;;;5025819;28;20217;-92
2023/01/14 11:52:20;;;;;;;2.35;1.23;;;8.00;99.90;;;;;;5040776;22;20913;-69
2023/01/14 11:54:50;;;;;;;3.13;1.48;;;8.00;99.90;;;;;;5031121;28;20225;-69
2023/01/14 11:57:20;;;;;;;1.60;1.05;;;8.00;99.90;;;;;;5031669;28;20210;-68
2023/01/14 11:59:49;;;;;;;1.58;1.10;;;8.00;99.90;;;;;;5031023;28;20228;-70
2023/01/14 12:02:22;;;;;;;1.20;1.10;;;8.10;99.90;;;;;;5031744;28;20206;-71
2023/01/14 12:04:55;;;;;;;1.38;0.90;;;8.10;99.90;;;;;;5031379;28;20229;-68
2023/01/14 12:07:27;;;;;;;2.33;1.00;;;8.10;99.90;;;;;;5031491;28;20209;-70
2023/01/14 12:09:57;;;;;;;6.10;1.60;;;8.10;99.90;;;;;;5031448;28;20208;-70
2023/01/14 12:12:30;;;;;;;1.20;1.05;;;8.10;99.90;;;;;;5032001;28;20633;-69
2023/01/14 12:17:56;;;;;;;4.20;1.63;;;8.10;99.90;;;;;;5033267;28;20270;-69
2023/01/14 12:20:26;;;;;;;2.00;1.30;;;8.10;99.90;;;;;;5051675;28;20221;-69
2023/01/14 12:22:58;;;;;;;1.10;0.95;;;8.10;99.90;;;;;;5051478;28;20205;-69
2023/01/14 12:25:28;;;;;;;1.40;1.20;;;8.10;99.90;;;;;;5051684;28;20742;-69
2023/01/14 12:28:00;;;;;;;1.15;1.05;;;8.10;99.90;;;;;;5046655;28;20213;-69
2023/01/14 12:30:52;;;;;;;2.65;1.13;;;8.00;99.90;;;;;;5030702;28;20205;-69
2023/01/14 12:33:30;;;;;;;1.55;1.08;;;8.00;99.90;;;;;;5026452;28;20595;-69
2023/01/14 12:36:07;;;;;;;1.75;1.30;;;8.10;99.90;;;;;;5031541;28;20232;-69
2023/01/14 12:47:16;;;;;;;1.55;1.10;;;8.00;99.90;;;;;;5028007;28;20248;-70
2023/01/14 12:49:43;;;;;;;1.52;1.00;;;8.00;99.90;;;;;;5027621;28;20700;-69
2023/01/14 12:52:13;;;;;;;1.85;1.02;;;8.00;99.90;;;;;;5028834;28;20221;-70
2023/01/14 12:54:42;;;;;;;7.60;2.03;;;8.00;99.90;;;;;;5030064;28;20205;-69
2023/01/14 12:57:18;;;;;;;2.15;1.58;;;7.90;99.90;;;;;;5031788;28;20217;-69
2023/01/14 12:59:52;;;;;;;2.63;1.40;;;8.00;99.90;;;;;;5029514;28;20633;-69
2023/01/14 13:02:24;;;;;;;1.00;0.90;;;8.00;99.90;;;;;;5031349;28;20586;-69
2023/01/14 13:04:59;;;;;;;4.00;1.27;;;8.00;99.90;;;;;;5030682;28;20324;-69
2023/01/14 13:07:29;;;;;;;2.30;1.30;;;8.00;99.90;;;;;;5031324;28;20582;-70
2023/01/14 13:09:59;;;;;;;1.30;1.10;;;8.10;99.90;;;;;;5030396;28;20213;-70
2023/01/14 13:12:28;;;;;;;1.75;1.10;;;8.10;99.90;;;;;;5031741;28;20206;-69
2023/01/14 13:14:57;;;;;;;1.92;1.20;;;8.10;99.90;;;;;;5031058;28;20226;-69
2023/01/14 13:17:32;;;;;;;1.33;1.13;;;8.10;99.90;;;;;;5030590;28;20209;-70
2023/01/14 13:20:00;;;;;;;1.85;1.00;;;8.20;99.90;;;;;;5030545;28;20225;-70
2023/01/14 13:22:48;;;;;;;2.53;1.35;;;8.20;99.90;;;;;;5031044;28;20209;-69
2023/01/14 13:25:35;;;;;;;3.25;1.45;;;8.30;99.90;;;;;;5030978;28;20272;-69
2023/01/14 13:28:03;;;;;;;1.52;1.00;;;8.30;99.90;;;;;;5028200;28;20569;-69
2023/01/14 13:30:46;;;;;;;1.95;1.27;;;8.30;99.90;;;;;;5029976;28;20688;-69
2023/01/14 13:33:19;;;;;;;1.95;1.17;;;8.40;99.90;;;;;;5031481;28;20210;-69
2023/01/14 13:36:16;;;;;;;1.88;1.15;;;8.40;99.90;;;;;;5030089;28;20247;-69
2023/01/14 13:38:47;;;;;;;2.10;1.00;;;8.40;99.90;;;;;;5030526;28;20232;-69
2023/01/14 13:41:33;;;;;;;1.25;1.10;;;8.40;99.90;;;;;;5030643;28;20287;-69
2023/01/14 13:44:01;;;;;;;1.05;0.93;;;8.40;99.90;;;;;;5030493;28;20264;-70
2023/01/14 13:46:33;;;;;;;1.20;1.10;;;8.50;99.90;;;;;;5030390;28;20665;-69
2023/01/14 13:49:02;;;;;;;1.15;1.05;;;8.50;99.90;;;;;;5029597;28;20202;-69
2023/01/14 13:51:38;;;;;;;2.00;1.38;;;8.50;99.90;;;;;;5030681;28;20217;-69
2023/01/14 13:54:17;;;;;;;1.85;1.15;;;8.50;99.90;;;;;;5029812;28;20213;-69
2023/01/14 13:56:47;;;;;;;6.53;1.65;;;8.50;99.90;;;;;;5029914;28;20218;-69
2023/01/14 13:59:20;;;;;;;2.95;0.93;;;8.50;99.90;;;;;;5029591;28;20221;-69
2023/01/14 14:01:49;;;;;;;7.00;1.77;;;8.50;99.90;;;;;;5030086;28;20214;-69
2023/01/14 14:04:54;;;;;;;6.53;1.65;;;8.60;99.90;;;;;;5030933;28;20214;-69
2023/01/14 14:07:59;;;;;;;1.20;1.08;;;8.60;99.90;;;;;;5029526;28;20201;-69
2023/01/14 14:10:31;;;;;;;1.10;1.00;;;8.60;99.90;;;;;;4980359;28;20212;-69
2023/01/14 14:15:51;;;;;;;1.35;1.10;;;8.60;99.90;;;;;;5029732;28;20224;-69
2023/01/14 14:18:25;;;;;;;2.55;1.17;;;8.60;99.90;;;;;;5028900;28;20206;-68
2023/01/14 14:20:53;;;;;;;1.95;1.13;;;8.60;99.90;;;;;;5029675;28;20221;-69
2023/01/14 14:23:25;;;;;;;1.25;0.95;;;8.60;99.90;;;;;;5030212;28;20206;-69
2023/01/14 14:25:54;;;;;;;1.73;1.27;;;8.60;99.90;;;;;;5029058;28;20260;-69
2023/01/14 14:28:24;;;;;;;1.70;1.10;;;8.60;99.90;;;;;;5029279;28;20202;-69
2023/01/14 14:30:55;;;;;;;1.00;0.90;;;8.60;99.90;;;;;;5029162;28;20221;-70
2023/01/14 14:33:33;;;;;;;1.77;1.50;;;8.60;99.90;;;;;;5029937;28;20221;-69
2023/01/14 14:36:01;;;;;;;1.33;0.90;;;8.60;99.90;;;;;;5030916;28;20232;-69
2023/01/14 14:38:28;;;;;;;1.90;1.08;;;8.60;99.90;;;;;;5028775;28;20244;-70
2023/01/14 14:40:56;;;;;;;1.20;1.10;;;8.60;99.90;;;;;;5029352;28;20543;-70
2023/01/14 14:43:26;;;;;;;2.25;1.35;;;8.60;99.90;;;;;;5028809;28;20269;-70
2023/01/14 14:46:00;;;;;;;1.67;1.38;;;8.60;99.90;;;;;;5029327;28;20225;-69
2023/01/14 14:48:29;;;;;;;2.10;1.60;;;8.60;99.90;;;;;;5029113;28;20205;-70
2023/01/14 14:50:57;;;;;;;3.40;1.30;;;8.60;99.90;;;;;;5029721;28;20588;-70
2023/01/14 14:53:29;;;;;;;2.50;1.13;;;8.60;99.90;;;;;;5030467;28;20220;-70
2023/01/14 14:55:59;;;;;;;2.08;1.00;;;8.60;99.90;;;;;;5028685;28;20592;-70
2023/01/14 14:58:26;;;;;;;2.95;1.10;;;8.60;99.90;;;;;;5028552;28;20210;-69
2023/01/14 15:00:56;;;;;;;3.80;1.38;;;8.60;99.90;;;;;;5028972;28;20218;-70
2023/01/14 15:03:24;;;;;;;1.85;1.10;;;8.60;99.90;;;;;;5040900;28;20209;-70
2023/01/14 15:05:52;;;;;;;2.00;1.17;;;8.60;99.90;;;;;;5028428;28;20225;-70
2023/01/14 15:08:25;;;;;;;1.10;1.00;;;8.60;99.90;;;;;;5028471;28;20209;-69
2023/01/14 15:10:52;;;;;;;1.00;0.90;;;8.70;99.90;;;;;;5028459;28;20213;-70
2023/01/14 15:13:26;;;;;;;2.10;1.20;;;8.80;99.90;;;;;;5028685;28;20201;-70
2023/01/14 15:16:03;;;;;;;4.13;1.15;;;8.80;99.90;;;;;;5028745;28;20252;-69
2023/01/14 15:18:34;;;;;;;1.20;1.00;;;8.70;99.90;;;;;;5028989;28;20212;-69
2023/01/14 15:21:01;;;;;;;1.52;1.00;;;8.70;99.90;;;;;;5028581;28;20221;-70
2023/01/14 15:23:28;;;;;;;1.88;1.10;;;8.80;99.90;;;;;;5029353;28;20206;-70
2023/01/14 15:25:55;;;;;;;1.05;0.88;;;8.80;99.90;;;;;;5028968;28;20226;-70
2023/01/14 15:28:25;;;;;;;1.10;0.90;;;8.90;99.90;;;;;;5032816;28;20197;-70
2023/01/14 15:30:56;;;;;;;1.10;1.00;;;8.90;99.90;;;;;;5048883;28;20605;-70
2023/01/14 15:33:27;;;;;;;1.80;1.08;;;8.90;99.90;;;;;;5031935;28;20252;-70
2023/01/14 15:35:58;;;;;;;0.85;0.82;;;9.00;99.90;;;;;;5026690;28;20766;-69
2023/01/14 15:38:26;;;;;;;1.88;0.80;;;8.90;99.90;;;;;;5027827;28;20208;-70
2023/01/14 15:40:54;;;;;;;1.35;0.90;;;9.00;99.90;;;;;;5027779;28;20232;-70
2023/01/14 15:43:25;;;;;;;2.10;1.17;;;8.90;99.90;;;;;;5027657;28;20213;-69
2023/01/14 15:45:55;;;;;;;1.00;0.90;;;8.90;99.90;;;;;;5028021;28;20316;-69
2023/01/14 15:48:22;;;;;;;1.10;0.90;;;8.90;99.90;;;;;;5027534;28;20198;-69
2023/01/14 15:50:58;;;;;;;0.90;0.80;;;8.80;99.90;;;;;;5027204;28;20247;-69
2023/01/14 15:53:27;;;;;;;0.90;0.80;;;8.80;99.90;;;;;;5026632;28;20217;-69
2023/01/14 15:56:11;;;;;;;1.13;1.02;;;8.60;99.90;;;;;;5027980;28;20646;-69